Time;durP1;ratioP1;P1;durP2;ratioP2;P2;SDS_P1;SDS_P2;PMS_P1;PMS_P2;Temp;Humidity;BMP_temperature;BMP_pressure;BME280_temperature;BME280_humidity;BME280_pressure;Samples;Min_cycle;Max_cycle;Signal;HPM_P1;HPM_P2
2021/08/10 00:00:35;;;;;;;4.95;1.70;;;15.20;99.90;;;;;;12516945;28;20049;-85
2021/08/10 00:06:37;;;;;;;5.47;1.83;;;15.30;99.90;;;;;;12520973;28;20048;-84
2021/08/10 00:12:39;;;;;;;7.85;1.88;;;15.30;99.90;;;;;;12521885;28;20048;-86
2021/08/10 00:18:41;;;;;;;4.38;1.80;;;15.20;99.90;;;;;;12531804;28;20060;-84
2021/08/10 00:24:42;;;;;;;7.35;1.98;;;15.00;99.90;;;;;;12545119;28;20041;-85
2021/08/10 00:30:44;;;;;;;2.90;1.77;;;15.00;99.90;;;;;;12537266;28;20453;-84
2021/08/10 00:36:46;;;;;;;5.43;2.15;;;15.10;99.90;;;;;;12526577;28;20082;-87
2021/08/10 00:42:48;;;;;;;8.43;2.08;;;15.10;99.90;;;;;;12531506;28;20080;-86
2021/08/10 00:48:50;;;;;;;6.75;1.98;;;15.00;99.90;;;;;;12529483;28;20549;-85
2021/08/10 00:54:53;;;;;;;6.35;2.00;;;15.00;99.90;;;;;;12528833;28;20050;-84
2021/08/10 01:00:54;;;;;;;3.28;1.80;;;14.90;99.90;;;;;;12533133;28;20053;-86
2021/08/10 01:07:16;;;;;;;4.70;2.13;;;14.90;99.90;;;;;;12547306;28;20066;-86
2021/08/10 01:13:36;;;;;;;5.00;1.95;;;14.90;99.90;;;;;;12555116;28;20128;-85
2021/08/10 01:19:44;;;;;;;4.78;1.80;;;15.00;99.90;;;;;;12535530;28;20057;-85
2021/08/10 01:26:00;;;;;;;4.55;2.05;;;15.00;99.90;;;;;;12535130;28;20049;-86
2021/08/10 01:32:03;;;;;;;4.97;1.98;;;15.10;99.90;;;;;;12546281;28;20456;-85
2021/08/10 01:38:06;;;;;;;3.83;1.83;;;15.20;99.90;;;;;;12525914;28;20464;-85
2021/08/10 01:44:09;;;;;;;3.47;1.85;;;15.20;99.90;;;;;;12516645;28;20150;-85
2021/08/10 01:50:12;;;;;;;4.47;1.75;;;15.10;99.90;;;;;;12525839;28;20052;-84
2021/08/10 01:56:14;;;;;;;4.90;1.75;;;15.20;99.90;;;;;;12524081;28;20471;-85
2021/08/10 02:02:16;;;;;;;4.38;1.50;;;15.30;99.90;;;;;;12519671;28;20136;-84
2021/08/10 02:08:19;;;;;;;3.83;1.80;;;15.30;99.90;;;;;;12518689;28;20056;-85
2021/08/10 02:14:24;;;;;;;4.35;1.70;;;15.30;99.90;;;;;;12531286;28;20044;-85
2021/08/10 02:20:27;;;;;;;3.17;1.55;;;15.40;99.90;;;;;;12519918;28;20049;-85
2021/08/10 02:26:30;;;;;;;3.20;1.55;;;15.40;99.90;;;;;;12524012;28;20588;-85
2021/08/10 02:32:33;;;;;;;6.25;1.63;;;15.60;99.90;;;;;;12515711;28;20105;-85
2021/08/10 02:38:37;;;;;;;4.20;1.70;;;15.60;99.90;;;;;;12518567;28;20106;-85
2021/08/10 02:44:44;;;;;;;4.07;1.67;;;15.50;99.90;;;;;;12524054;28;20048;-86
2021/08/10 02:50:47;;;;;;;6.15;1.73;;;15.50;99.90;;;;;;12514849;28;20040;-85
2021/08/10 02:57:11;;;;;;;4.00;1.60;;;15.40;99.90;;;;;;12512690;28;20049;-85
2021/08/10 03:03:17;;;;;;;6.13;1.70;;;15.40;99.90;;;;;;12537560;28;20040;-85
2021/08/10 03:09:20;;;;;;;6.75;1.63;;;15.40;99.90;;;;;;12520285;28;20056;-85
2021/08/10 03:15:26;;;;;;;4.35;1.70;;;15.30;99.90;;;;;;12522919;28;20048;-85
2021/08/10 03:21:29;;;;;;;4.75;1.92;;;15.10;99.90;;;;;;12523438;28;20479;-84
2021/08/10 03:27:32;;;;;;;3.38;1.67;;;15.10;99.90;;;;;;12525518;28;20065;-86
2021/08/10 03:33:34;;;;;;;4.00;1.70;;;15.10;99.90;;;;;;12510610;28;20119;-84
2021/08/10 03:39:39;;;;;;;3.85;1.70;;;15.10;99.90;;;;;;12531132;28;20056;-85
2021/08/10 03:45:41;;;;;;;3.95;1.70;;;15.10;99.90;;;;;;12533773;28;20404;-85
2021/08/10 03:51:44;;;;;;;5.78;1.90;;;15.00;99.90;;;;;;12536436;28;20047;-85
2021/08/10 03:57:47;;;;;;;6.25;1.70;;;15.00;99.90;;;;;;12536631;28;20102;-85
2021/08/10 04:03:51;;;;;;;4.47;2.03;;;15.00;99.90;;;;;;12531653;28;20094;-86
2021/08/10 04:09:54;;;;;;;5.90;2.20;;;15.00;99.90;;;;;;12532951;28;20057;-85
2021/08/10 04:15:57;;;;;;;7.38;2.10;;;15.00;99.90;;;;;;12535381;28;20293;-85
2021/08/10 04:22:00;;;;;;;4.22;2.22;;;15.00;99.90;;;;;;12538987;28;20060;-86
2021/08/10 04:28:02;;;;;;;4.03;2.27;;;14.90;99.90;;;;;;12533828;28;20052;-84
2021/08/10 04:34:04;;;;;;;11.90;2.33;;;14.90;99.90;;;;;;12533900;28;20109;-86
2021/08/10 04:40:07;;;;;;;4.63;2.08;;;14.90;99.90;;;;;;12534594;28;20110;-85
2021/08/10 04:46:09;;;;;;;6.22;2.33;;;14.90;99.90;;;;;;12554479;28;20044;-85
2021/08/10 04:52:11;;;;;;;4.90;2.17;;;14.90;99.90;;;;;;12546569;28;20125;-85
2021/08/10 04:58:12;;;;;;;4.60;2.00;;;14.90;99.90;;;;;;12532247;28;20127;-86
2021/08/10 05:04:14;;;;;;;4.43;2.15;;;15.00;99.90;;;;;;12524927;28;20181;-86
2021/08/10 05:10:16;;;;;;;4.20;1.77;;;15.00;99.90;;;;;;12531818;28;20623;-86
2021/08/10 05:16:18;;;;;;;5.95;2.03;;;15.00;99.90;;;;;;12528224;28;20068;-86
2021/08/10 05:22:20;;;;;;;3.17;1.60;;;15.00;99.90;;;;;;12526705;28;20048;-86
2021/08/10 05:28:22;;;;;;;7.38;1.98;;;15.00;99.90;;;;;;12526964;28;20049;-86
2021/08/10 05:34:23;;;;;;;7.28;2.10;;;15.10;99.90;;;;;;12527868;28;20041;-85
2021/08/10 05:40:25;;;;;;;3.30;1.58;;;15.10;99.90;;;;;;12530908;28;20204;-86
2021/08/10 05:46:27;;;;;;;7.32;2.00;;;15.10;99.90;;;;;;12530553;28;20188;-86
2021/08/10 05:52:30;;;;;;;5.97;1.95;;;15.10;99.90;;;;;;12527502;28;20049;-86
2021/08/10 05:58:32;;;;;;;6.50;2.10;;;15.10;99.90;;;;;;12525080;28;20064;-86
2021/08/10 06:04:34;;;;;;;6.88;2.13;;;15.00;99.90;;;;;;12520213;28;20853;-86
2021/08/10 06:10:36;;;;;;;5.57;2.72;;;14.90;99.90;;;;;;12523731;28;20075;-84
2021/08/10 06:16:38;;;;;;;10.25;2.80;;;14.70;99.90;;;;;;12514053;28;20045;-86
2021/08/10 06:22:40;;;;;;;7.18;2.83;;;14.70;99.90;;;;;;12517924;28;20049;-85
2021/08/10 06:28:41;;;;;;;5.47;2.83;;;14.60;99.90;;;;;;12517864;28;20057;-86
2021/08/10 06:34:44;;;;;;;8.73;3.95;;;14.60;99.90;;;;;;12522011;28;20048;-87
2021/08/10 06:40:46;;;;;;;7.63;3.95;;;14.50;99.90;;;;;;12531918;28;20537;-86
2021/08/10 06:46:48;;;;;;;11.50;4.38;;;14.50;99.90;;;;;;12533668;28;20102;-86
2021/08/10 06:52:50;;;;;;;8.88;4.30;;;14.50;99.90;;;;;;12524814;28;20108;-85
2021/08/10 06:58:52;;;;;;;8.48;4.05;;;14.90;99.90;;;;;;12521390;28;20540;-85
2021/08/10 07:04:55;;;;;;;8.13;3.83;;;15.10;99.90;;;;;;12518524;28;20054;-87
2021/08/10 07:10:57;;;;;;;9.30;4.10;;;15.20;99.90;;;;;;12524451;28;20132;-85
2021/08/10 07:16:59;;;;;;;9.57;4.57;;;15.50;99.90;;;;;;12515980;28;20084;-85
2021/08/10 07:23:01;;;;;;;8.93;4.53;;;15.60;99.90;;;;;;12527292;28;20041;-85
2021/08/10 07:29:03;;;;;;;9.32;4.13;;;15.70;99.90;;;;;;12526001;28;20041;-85
2021/08/10 07:35:06;;;;;;;8.23;3.78;;;15.90;99.90;;;;;;12532543;28;20166;-85
2021/08/10 07:41:08;;;;;;;8.30;3.90;;;16.10;99.90;;;;;;12517231;28;20160;-86
2021/08/10 07:47:10;;;;;;;6.13;3.60;;;16.30;99.90;;;;;;12526509;28;20109;-86
2021/08/10 07:53:12;;;;;;;10.98;4.18;;;16.60;99.90;;;;;;12524472;28;20131;-86
2021/08/10 07:59:13;;;;;;;10.32;5.38;;;16.90;99.90;;;;;;12522085;28;20056;-86
2021/08/10 08:05:15;;;;;;;8.05;4.60;;;17.10;99.90;;;;;;12527370;28;20087;-86
2021/08/10 08:11:17;;;;;;;7.93;4.60;;;17.20;99.90;;;;;;12522136;28;20049;-86
2021/08/10 08:17:19;;;;;;;8.55;3.90;;;17.50;99.90;;;;;;12527704;28;20045;-85
2021/08/10 08:23:30;;;;;;;5.65;3.25;;;17.70;99.90;;;;;;12532683;28;20041;-86
2021/08/10 08:29:31;;;;;;;7.15;3.40;;;17.90;99.90;;;;;;12543855;28;20048;-85
2021/08/10 08:35:34;;;;;;;6.38;3.10;;;18.10;99.90;;;;;;12556017;28;20091;-86
2021/08/10 08:41:36;;;;;;;6.50;3.17;;;18.10;99.90;;;;;;12532495;28;20083;-86
2021/08/10 08:47:40;;;;;;;6.32;2.75;;;18.20;99.90;;;;;;12534259;28;20049;-86
2021/08/10 08:54:02;;;;;;;4.43;2.33;;;18.30;99.90;;;;;;12527494;28;20131;-85
2021/08/10 09:00:05;;;;;;;6.15;2.80;;;18.40;99.90;;;;;;12533084;28;20105;-87
2021/08/10 09:06:07;;;;;;;5.72;2.90;;;18.60;99.90;;;;;;12529912;28;20103;-88
2021/08/10 09:12:14;;;;;;;4.70;2.60;;;18.90;99.90;;;;;;12524668;28;20129;-87
2021/08/10 09:18:18;;;;;;;6.43;2.97;;;19.40;99.90;;;;;;12547040;28;20130;-85
2021/08/10 09:24:20;;;;;;;5.60;2.83;;;19.00;99.90;;;;;;12526774;28;20053;-86
2021/08/10 09:30:26;;;;;;;5.63;2.70;;;19.10;99.90;;;;;;12524585;28;20518;-87
2021/08/10 09:36:28;;;;;;;5.93;2.65;;;19.50;99.90;;;;;;12533628;28;20061;-86
2021/08/10 09:42:31;;;;;;;5.43;3.10;;;19.40;99.90;;;;;;12524122;28;20599;-86
2021/08/10 09:48:34;;;;;;;6.80;3.38;;;19.30;99.90;;;;;;12524947;28;20048;-86
2021/08/10 09:54:36;;;;;;;8.00;3.13;;;19.30;99.90;;;;;;12521165;28;20128;-87
2021/08/10 10:00:39;;;;;;;5.82;3.20;;;20.10;99.90;;;;;;12526647;28;20037;-87
2021/08/10 10:06:42;;;;;;;5.95;3.38;;;20.00;99.90;;;;;;12524004;28;20056;-86
2021/08/10 10:12:46;;;;;;;5.43;3.67;;;20.20;99.90;;;;;;12523400;28;20983;-87
2021/08/10 10:18:49;;;;;;;7.40;3.53;;;20.30;99.90;;;;;;12528035;28;20057;-86
2021/08/10 10:24:54;;;;;;;7.53;3.92;;;20.20;99.90;;;;;;12525171;28;20041;-87
2021/08/10 10:30:59;;;;;;;7.13;3.65;;;20.70;99.90;;;;;;12526478;28;20045;-86
2021/08/10 10:37:03;;;;;;;4.90;3.28;;;20.80;99.90;;;;;;12524325;28;20057;-87
2021/08/10 10:43:05;;;;;;;6.30;3.65;;;21.00;99.90;;;;;;12523015;28;20090;-86
2021/08/10 10:49:09;;;;;;;7.15;3.63;;;20.70;99.90;;;;;;12514231;28;20343;-88
2021/08/10 10:55:11;;;;;;;9.02;4.35;;;20.60;99.90;;;;;;12521758;28;20044;-85
2021/08/10 11:01:21;;;;;;;6.57;3.35;;;20.10;99.90;;;;;;12509477;28;20037;-87
2021/08/10 11:07:52;;;;;;;6.38;3.90;;;20.60;99.90;;;;;;12529138;28;20838;-86
2021/08/10 11:13:55;;;;;;;6.10;3.92;;;20.80;99.90;;;;;;12527441;28;20101;-84
2021/08/10 11:19:57;;;;;;;7.25;3.78;;;21.40;99.90;;;;;;12527857;28;20052;-87
2021/08/10 11:25:59;;;;;;;7.65;3.70;;;20.90;99.90;;;;;;12524318;28;20091;-87
2021/08/10 11:32:01;;;;;;;6.38;3.80;;;20.80;99.90;;;;;;12536686;28;20126;-87
2021/08/10 11:38:06;;;;;;;5.72;3.42;;;21.40;99.90;;;;;;12522086;28;20095;-87
2021/08/10 11:44:20;;;;;;;6.68;3.53;;;21.90;99.90;;;;;;12520284;28;20037;-89
2021/08/10 11:50:26;;;;;;;4.70;2.78;;;22.30;99.90;;;;;;12519808;28;20066;-88
2021/08/10 11:56:32;;;;;;;5.00;2.90;;;22.30;99.90;;;;;;12523726;28;20113;-86
2021/08/10 12:02:42;;;;;;;5.25;3.30;;;22.30;99.90;;;;;;12546776;28;20044;-87
2021/08/10 12:08:45;;;;;;;5.28;2.88;;;21.60;99.90;;;;;;12537923;28;20056;-87
2021/08/10 12:14:46;;;;;;;5.43;3.17;;;21.50;99.90;;;;;;12531022;28;20044;-86
2021/08/10 12:21:02;;;;;;;5.25;3.20;;;22.00;99.90;;;;;;12518665;28;20041;-87
2021/08/10 12:27:06;;;;;;;7.32;3.20;;;21.60;99.90;;;;;;12527406;28;20041;-87
2021/08/10 12:33:20;;;;;;;6.45;3.10;;;20.90;99.90;;;;;;12513550;28;20393;-85
2021/08/10 12:39:22;;;;;;;4.60;3.10;;;21.00;99.90;;;;;;12531505;28;20044;-88
2021/08/10 12:45:32;;;;;;;4.63;3.03;;;21.10;99.90;;;;;;12524052;28;20052;-87
2021/08/10 12:51:51;;;;;;;5.53;3.53;;;20.90;99.90;;;;;;12530358;28;20078;-88
2021/08/10 12:58:00;;;;;;;5.57;3.65;;;20.70;99.90;;;;;;12527191;28;20167;-88
2021/08/10 13:04:10;;;;;;;6.60;3.90;;;20.80;99.90;;;;;;12523696;28;20044;-86
2021/08/10 13:10:13;;;;;;;8.18;4.28;;;21.00;99.90;;;;;;12527580;28;20135;-87
2021/08/10 13:16:34;;;;;;;6.47;4.15;;;20.80;99.90;;;;;;12512933;28;20056;-86
2021/08/10 13:22:39;;;;;;;8.25;4.93;;;20.60;99.90;;;;;;12521696;28;20048;-87
2021/08/10 13:28:45;;;;;;;6.43;3.78;;;20.50;99.90;;;;;;12529327;28;20040;-86
2021/08/10 13:34:47;;;;;;;5.88;4.47;;;20.60;99.90;;;;;;12525601;28;20542;-87
2021/08/10 13:40:52;;;;;;;11.00;4.68;;;20.60;99.90;;;;;;12525563;28;20056;-86
2021/08/10 13:46:54;;;;;;;6.45;4.38;;;20.60;99.90;;;;;;12526448;28;20627;-88
2021/08/10 13:52:56;;;;;;;6.13;3.80;;;20.60;99.90;;;;;;12528760;28;20048;-87
2021/08/10 13:59:06;;;;;;;8.13;4.60;;;20.40;99.90;;;;;;12522310;28;20055;-87
2021/08/10 14:05:09;;;;;;;6.57;4.00;;;20.40;99.90;;;;;;12517659;28;20107;-87
2021/08/10 14:11:11;;;;;;;8.00;4.30;;;21.00;99.90;;;;;;12518724;28;20056;-88
2021/08/10 14:17:13;;;;;;;6.65;4.45;;;21.30;99.90;;;;;;12515235;28;20132;-86
2021/08/10 14:23:15;;;;;;;8.30;4.35;;;21.50;99.90;;;;;;12519479;28;20069;-87
2021/08/10 14:29:17;;;;;;;7.38;4.20;;;21.90;99.90;;;;;;12527976;28;20052;-87
2021/08/10 14:35:19;;;;;;;6.70;3.78;;;22.80;99.90;;;;;;12523688;28;20049;-86
2021/08/10 14:41:21;;;;;;;7.30;3.70;;;23.20;99.90;;;;;;12525317;28;20045;-86
2021/08/10 14:47:23;;;;;;;7.72;3.80;;;23.60;99.90;;;;;;12520916;28;20456;-88
2021/08/10 14:53:27;;;;;;;8.40;4.18;;;22.80;99.90;;;;;;12523471;28;20045;-86
2021/08/10 14:59:28;;;;;;;6.45;3.92;;;22.20;99.90;;;;;;12527215;28;20238;-86
2021/08/10 15:05:30;;;;;;;6.95;3.55;;;21.90;99.90;;;;;;12534702;28;20076;-87
2021/08/10 15:11:32;;;;;;;3.53;2.40;;;21.90;99.90;;;;;;12538769;28;20074;-87
2021/08/10 15:17:52;;;;;;;3.80;2.17;;;22.00;99.90;;;;;;12522581;28;20674;-85
2021/08/10 15:23:54;;;;;;;4.65;2.45;;;21.60;99.90;;;;;;12524161;28;20041;-87
2021/08/10 15:29:56;;;;;;;4.60;2.67;;;21.30;99.90;;;;;;12534147;28;20396;-86
2021/08/10 15:35:58;;;;;;;4.53;2.50;;;21.20;99.90;;;;;;12524851;28;20049;-87
2021/08/10 15:42:00;;;;;;;5.75;3.22;;;21.10;99.90;;;;;;12517088;28;20049;-86
2021/08/10 15:48:02;;;;;;;6.35;3.50;;;20.60;99.90;;;;;;12514822;28;20044;-85
2021/08/10 15:54:04;;;;;;;5.50;3.30;;;19.80;99.90;;;;;;12514678;28;20462;-85
2021/08/10 16:00:07;;;;;;;6.15;3.38;;;19.50;99.90;;;;;;12523343;28;20048;-85
2021/08/10 16:06:09;;;;;;;6.72;2.80;;;19.40;99.90;;;;;;12517331;28;20053;-86
2021/08/10 16:12:11;;;;;;;4.68;2.17;;;19.00;99.90;;;;;;12522022;28;20774;-85
2021/08/10 16:18:13;;;;;;;6.25;2.70;;;18.80;99.90;;;;;;12511150;28;20102;-86
2021/08/10 16:24:15;;;;;;;5.57;3.17;;;18.80;99.90;;;;;;12514037;28;20447;-85
2021/08/10 16:30:17;;;;;;;5.10;2.58;;;18.90;99.90;;;;;;12511914;28;20554;-86
2021/08/10 16:36:19;;;;;;;6.65;2.90;;;19.10;99.90;;;;;;12513892;28;20516;-86
2021/08/10 16:42:20;;;;;;;5.32;2.75;;;18.90;99.90;;;;;;12515699;28;20171;-86
2021/08/10 16:48:25;;;;;;;8.20;2.70;;;18.80;99.90;;;;;;12520730;28;20366;-86
2021/08/10 16:54:27;;;;;;;7.70;3.40;;;18.60;99.90;;;;;;12519156;28;20090;-87
2021/08/10 17:00:29;;;;;;;5.60;3.05;;;18.50;99.90;;;;;;12515195;28;20056;-86
2021/08/10 17:06:31;;;;;;;9.75;3.95;;;18.80;99.90;;;;;;12519713;28;20048;-86
2021/08/10 17:12:32;;;;;;;7.45;2.92;;;19.70;99.90;;;;;;12520932;28;20455;-86
2021/08/10 17:18:34;;;;;;;7.43;2.95;;;20.40;99.90;;;;;;12532143;28;20061;-87
2021/08/10 17:24:36;;;;;;;4.95;2.50;;;20.20;99.90;;;;;;12521389;28;20438;-87
2021/08/10 17:30:39;;;;;;;6.00;1.92;;;19.50;99.90;;;;;;12512244;28;20103;-87
2021/08/10 17:36:41;;;;;;;5.70;2.13;;;19.30;99.90;;;;;;12524690;28;20766;-86
2021/08/10 17:42:43;;;;;;;3.60;2.00;;;19.70;99.90;;;;;;12517010;28;20465;-87
2021/08/10 17:48:50;;;;;;;4.20;1.90;;;20.20;99.90;;;;;;12517553;28;20562;-87
2021/08/10 17:54:52;;;;;;;5.82;2.10;;;20.10;99.90;;;;;;12510669;28;20044;-86
2021/08/10 18:00:55;;;;;;;6.45;2.40;;;19.80;99.90;;;;;;12504687;28;20079;-86
2021/08/10 18:06:57;;;;;;;4.93;1.93;;;19.50;99.90;;;;;;12517773;28;20061;-86
2021/08/10 18:12:59;;;;;;;4.22;2.20;;;19.20;99.90;;;;;;12525126;28;20123;-86
2021/08/10 18:19:01;;;;;;;3.15;2.08;;;19.10;99.90;;;;;;12524841;28;20079;-86
2021/08/10 18:25:05;;;;;;;3.78;2.10;;;18.80;99.90;;;;;;12521184;28;20045;-87
2021/08/10 18:31:07;;;;;;;3.25;1.98;;;18.50;99.90;;;;;;12525299;28;20090;-86
2021/08/10 18:37:11;;;;;;;4.60;2.60;;;18.50;99.90;;;;;;12513935;28;20064;-86
2021/08/10 18:43:13;;;;;;;5.63;2.55;;;18.30;99.90;;;;;;12523771;28;20132;-87
2021/08/10 18:49:15;;;;;;;9.27;2.63;;;18.40;99.90;;;;;;12541264;28;20057;-87
2021/08/10 18:55:17;;;;;;;5.43;2.28;;;18.00;99.90;;;;;;12522162;28;20107;-87
2021/08/10 19:01:19;;;;;;;5.47;2.70;;;17.90;99.90;;;;;;12528699;28;20056;-87
2021/08/10 19:07:22;;;;;;;4.85;2.75;;;17.80;99.90;;;;;;12520797;28;20053;-86
2021/08/10 19:13:23;;;;;;;5.05;2.60;;;17.70;99.90;;;;;;12519079;28;20582;-85
2021/08/10 19:19:25;;;;;;;6.05;2.28;;;17.60;99.90;;;;;;12514203;28;20053;-86
2021/08/10 19:25:28;;;;;;;4.20;2.45;;;17.20;99.90;;;;;;12511824;28;20437;-87
2021/08/10 19:31:30;;;;;;;4.03;2.63;;;17.10;99.90;;;;;;12510529;28;20084;-85
2021/08/10 19:37:33;;;;;;;4.95;2.92;;;16.80;99.90;;;;;;12528360;28;20056;-85
2021/08/10 19:43:35;;;;;;;4.72;2.80;;;16.60;99.90;;;;;;12530551;28;20053;-85
2021/08/10 19:49:37;;;;;;;5.45;2.63;;;16.50;99.90;;;;;;12525815;28;20079;-86
2021/08/10 19:55:39;;;;;;;4.88;2.80;;;16.40;99.90;;;;;;12522964;28;20046;-85
2021/08/10 20:01:41;;;;;;;8.18;3.70;;;16.30;99.90;;;;;;12523091;28;20103;-85
2021/08/10 20:07:43;;;;;;;6.97;3.00;;;16.00;99.90;;;;;;12515806;28;20049;-85
2021/08/10 20:13:45;;;;;;;5.88;3.33;;;16.00;99.90;;;;;;12516102;28;20152;-85
2021/08/10 20:19:50;;;;;;;6.93;3.60;;;16.00;99.90;;;;;;12513291;28;20048;-86
2021/08/10 20:25:51;;;;;;;5.88;3.63;;;16.00;99.90;;;;;;12530580;28;20052;-85
2021/08/10 20:31:56;;;;;;;5.13;3.45;;;16.00;99.90;;;;;;12529625;28;20056;-85
2021/08/10 20:37:58;;;;;;;4.55;3.13;;;16.00;99.90;;;;;;12526016;28;20052;-85
2021/08/10 20:44:00;;;;;;;6.50;4.30;;;16.00;99.90;;;;;;12527387;28;20049;-85
2021/08/10 20:50:03;;;;;;;6.60;4.30;;;16.10;99.90;;;;;;12533455;28;20100;-86
2021/08/10 20:56:07;;;;;;;6.22;3.90;;;16.10;99.90;;;;;;12526369;28;20139;-85
2021/08/10 21:02:09;;;;;;;5.32;3.65;;;16.00;99.90;;;;;;12533744;28;20051;-86
2021/08/10 21:08:11;;;;;;;7.00;4.05;;;16.10;99.90;;;;;;12522940;28;20058;-86
2021/08/10 21:14:13;;;;;;;7.43;3.83;;;16.10;99.90;;;;;;12517963;28;20041;-86
2021/08/10 21:20:15;;;;;;;8.18;4.13;;;16.00;99.90;;;;;;12531533;28;20116;-85
2021/08/10 21:26:17;;;;;;;5.90;3.40;;;15.90;99.90;;;;;;12521613;28;20401;-86
2021/08/10 21:32:19;;;;;;;6.10;4.00;;;15.70;99.90;;;;;;12525737;28;20123;-85
2021/08/10 21:38:23;;;;;;;6.05;4.07;;;15.70;99.90;;;;;;12524591;28;20084;-85
2021/08/10 21:44:24;;;;;;;7.18;4.15;;;15.60;99.90;;;;;;12526186;28;20052;-85
2021/08/10 21:50:26;;;;;;;6.18;4.13;;;15.50;99.90;;;;;;12534663;28;20040;-85
2021/08/10 21:56:28;;;;;;;7.75;3.92;;;15.60;99.90;;;;;;12527308;28;20056;-86
2021/08/10 22:02:30;;;;;;;8.10;4.07;;;15.70;99.90;;;;;;12528241;28;20137;-85
2021/08/10 22:08:32;;;;;;;6.60;4.45;;;15.90;99.90;;;;;;12528925;28;20112;-86
2021/08/10 22:14:34;;;;;;;8.52;4.57;;;16.00;99.90;;;;;;12528207;28;20402;-86
2021/08/10 22:20:36;;;;;;;6.78;4.63;;;15.70;99.90;;;;;;12549226;28;20114;-86
2021/08/10 22:26:38;;;;;;;8.65;4.90;;;15.80;99.90;;;;;;12529843;28;20866;-85
2021/08/10 22:32:40;;;;;;;8.68;4.78;;;15.60;99.90;;;;;;12536867;28;20041;-86
2021/08/10 22:38:43;;;;;;;6.97;4.25;;;15.70;99.90;;;;;;12524188;28;20716;-85
2021/08/10 22:44:44;;;;;;;8.02;5.00;;;15.70;99.90;;;;;;12518249;28;20637;-86
2021/08/10 22:50:46;;;;;;;7.28;5.45;;;15.70;99.90;;;;;;12529289;28;20049;-86
2021/08/10 22:56:48;;;;;;;8.02;5.28;;;15.70;99.90;;;;;;12520248;28;20469;-86
2021/08/10 23:02:50;;;;;;;5.68;3.90;;;15.70;99.90;;;;;;12522825;28;20584;-86
2021/08/10 23:08:54;;;;;;;9.00;5.22;;;15.80;99.90;;;;;;12522491;28;20058;-85
2021/08/10 23:14:55;;;;;;;8.80;5.57;;;15.70;99.90;;;;;;12520017;28;20049;-85
2021/08/10 23:20:58;;;;;;;7.88;5.65;;;15.60;99.90;;;;;;12524493;28;20063;-85
2021/08/10 23:26:59;;;;;;;8.43;5.80;;;15.40;99.90;;;;;;12517467;28;20052;-86
2021/08/10 23:33:01;;;;;;;9.93;7.18;;;15.20;99.90;;;;;;12515179;28;20729;-86
2021/08/10 23:39:03;;;;;;;10.02;7.05;;;15.10;99.90;;;;;;12517738;28;20393;-86
2021/08/10 23:45:05;;;;;;;11.07;7.30;;;15.20;99.90;;;;;;12504871;28;20082;-85
2021/08/10 23:51:07;;;;;;;9.15;7.15;;;15.30;99.90;;;;;;12520383;28;20546;-86
2021/08/10 23:57:09;;;;;;;11.80;6.85;;;15.40;99.90;;;;;;12524494;28;20147;-85
